Wheeler, Indiana
Current Conditions -  °F | °C
As of 4:56 PM on Tuesday 21 Oct 2014 (Local Time) from KVPZ Reporting Station
Overcast Overcast  
Wind Chill: 50°   Ceiling: 3000
Heat Index: 50°   Visibility: 10mi
Dew Point: 40°   Wind: 7mph
Humidity: 68%   Direction: 350°N
Pressure: 30.17"   Gusts: NA
Location:  41.51°N, 87.18°W
Report Text: KVPZ 212156Z AUTO 35006KT 10SM OVC030 10/04 A3017 RMK AO2 SLP221 T01000044 TSNO
Loading
Personal Weather Stations






























Interactive Weather Map
Tropical Storm Tracking
New forecast layout! Learn more

10-Day Weather Forecast

Advertisements
Track Severe Weather on mobile